createdAt,value
2023-04-10T00:00:12.384Z,7.56
2023-04-10T00:05:13.875Z,7.47
2023-04-10T00:10:15.278Z,7.42
2023-04-10T00:15:16.597Z,7.40
2023-04-10T00:20:17.941Z,7.40
2023-04-10T00:25:19.337Z,7.33
2023-04-10T00:30:21.527Z,7.32
2023-04-10T00:35:22.887Z,7.32
2023-04-10T00:40:24.410Z,7.29
2023-04-10T00:45:26.128Z,7.24
2023-04-10T00:50:27.478Z,7.18
2023-04-10T00:55:28.953Z,7.14
2023-04-10T01:00:30.846Z,7.09
2023-04-10T01:05:39.344Z,7.08
2023-04-10T01:11:05.454Z,6.95
2023-04-10T01:16:29.172Z,6.91
2023-04-10T01:21:33.652Z,6.94
2023-04-10T01:27:06.031Z,6.84
2023-04-10T01:32:14.747Z,6.83
2023-04-10T01:37:20.326Z,6.76
2023-04-10T01:42:23.333Z,6.74
2023-04-10T01:47:26.600Z,6.77
2023-04-10T01:52:30.148Z,6.65
2023-04-10T01:57:31.892Z,6.69
2023-04-10T02:02:34.854Z,6.77
2023-04-10T02:08:03.109Z,6.72
2023-04-10T02:13:07.124Z,6.62
2023-04-10T02:18:10.556Z,6.62
2023-04-10T02:23:11.944Z,6.53
2023-04-10T02:28:13.267Z,6.56
2023-04-10T02:33:14.578Z,6.47
2023-04-10T02:38:17.534Z,6.30
2023-04-10T02:43:19.003Z,6.08
2023-04-10T02:48:20.359Z,5.97
2023-04-10T02:53:23.077Z,6.08
2023-04-10T02:58:24.510Z,6.09
2023-04-10T03:03:26.095Z,6.14
2023-04-10T03:08:27.751Z,6.16
2023-04-10T03:13:29.234Z,6.13
2023-04-10T03:18:31.884Z,6.09
2023-04-10T03:23:33.299Z,6.10
2023-04-10T03:28:36.507Z,6.20
2023-04-10T03:33:37.982Z,6.23
2023-04-10T03:38:39.334Z,6.23
2023-04-10T03:43:40.750Z,6.18
2023-04-10T03:48:42.281Z,6.21
2023-04-10T03:53:43.603Z,6.21
2023-04-10T03:58:44.987Z,6.21
2023-04-10T04:03:46.479Z,6.11
2023-04-10T04:08:47.896Z,6.12
2023-04-10T04:13:49.254Z,6.06
2023-04-10T04:18:50.593Z,6.06
2023-04-10T04:23:52.099Z,6.08
2023-04-10T04:28:53.583Z,6.08
2023-04-10T04:33:55.085Z,6.06
2023-04-10T04:38:56.599Z,6.09
2023-04-10T04:43:58.976Z,6.07
2023-04-10T04:49:00.435Z,5.95
2023-04-10T04:54:01.776Z,6.07
2023-04-10T04:59:03.790Z,6.14
2023-04-10T05:04:05.392Z,6.11
2023-04-10T05:09:06.844Z,6.10
2023-04-10T05:14:08.160Z,6.13
2023-04-10T05:19:09.515Z,6.24
2023-04-10T05:24:11.131Z,6.36
2023-04-10T05:29:12.471Z,6.43
2023-04-10T05:34:13.821Z,6.50
2023-04-10T05:39:15.761Z,6.65
2023-04-10T05:44:17.110Z,6.75
2023-04-10T05:49:18.546Z,6.90
2023-04-10T05:54:19.867Z,7.01
2023-04-10T05:59:21.194Z,7.18
2023-04-10T06:04:23.269Z,7.31
2023-04-10T06:09:24.690Z,7.43
2023-04-10T06:14:26.098Z,7.57
2023-04-10T06:19:27.527Z,7.72
2023-04-10T06:24:28.847Z,7.92
2023-04-10T06:29:30.436Z,8.10
2023-04-10T06:34:31.771Z,8.27
2023-04-10T06:39:33.104Z,8.44
2023-04-10T06:44:34.475Z,8.59
2023-04-10T06:49:36.264Z,8.78
2023-04-10T06:54:37.588Z,8.91
2023-04-10T06:59:38.996Z,9.02
2023-04-10T07:04:40.406Z,9.25
2023-04-10T07:09:41.903Z,9.47
2023-04-10T07:14:43.311Z,9.69
2023-04-10T07:19:44.650Z,9.90
2023-04-10T07:24:46.184Z,10.09
2023-04-10T07:29:47.562Z,10.34
2023-04-10T07:34:49.115Z,10.50
2023-04-10T07:39:50.485Z,10.76
2023-04-10T07:44:52.017Z,10.99
2023-04-10T07:49:53.414Z,11.27
2023-04-10T07:54:54.771Z,11.38
2023-04-10T07:59:57.162Z,11.58
2023-04-10T08:04:58.550Z,11.74
2023-04-10T08:10:00.030Z,12.00
2023-04-10T08:15:01.624Z,12.24
2023-04-10T08:20:04.743Z,12.44
2023-04-10T08:25:06.316Z,12.64
2023-04-10T08:30:08.223Z,12.87
2023-04-10T08:35:09.635Z,13.11
2023-04-10T08:40:12.014Z,13.35
2023-04-10T08:45:13.418Z,13.55
2023-04-10T08:50:17.506Z,13.79
2023-04-10T08:55:20.123Z,14.07
2023-04-10T09:00:23.350Z,14.35
2023-04-10T09:05:29.531Z,14.64
2023-04-10T09:10:30.919Z,15.02
2023-04-10T09:15:55.354Z,15.33
2023-04-10T09:21:06.822Z,15.58
2023-04-10T09:26:24.941Z,15.98
2023-04-10T09:31:37.605Z,16.27
2023-04-10T09:36:43.278Z,16.69
2023-04-10T09:41:52.392Z,16.94
2023-04-10T09:46:54.675Z,17.07
2023-04-10T09:51:56.286Z,17.25
2023-04-10T09:56:58.315Z,17.35
2023-04-10T10:01:59.796Z,17.41
2023-04-10T10:07:01.734Z,17.56
2023-04-10T10:12:04.061Z,17.74
2023-04-10T10:17:10.745Z,17.75
2023-04-10T10:22:13.638Z,17.94
2023-04-10T10:27:17.730Z,18.12
2023-04-10T10:32:21.533Z,18.37
2023-04-10T10:37:23.688Z,18.62
2023-04-10T10:42:34.041Z,18.94
2023-04-10T10:47:42.088Z,19.42
2023-04-10T10:52:53.993Z,19.85
2023-04-10T10:57:57.220Z,20.18
2023-04-10T11:03:07.948Z,20.56
2023-04-10T11:08:09.509Z,20.76
2023-04-10T11:13:18.219Z,21.03
2023-04-10T11:18:20.861Z,21.26
2023-04-10T11:23:22.205Z,21.17
2023-04-10T11:28:35.626Z,21.43
2023-04-10T11:33:37.982Z,21.57
2023-04-10T11:38:39.317Z,21.71
2023-04-10T11:43:40.624Z,21.84
2023-04-10T11:48:42.250Z,21.94
2023-04-10T11:53:43.776Z,21.90
2023-04-10T11:58:45.114Z,21.87
2023-04-10T12:03:46.591Z,21.92
2023-04-10T12:08:51.659Z,21.94
2023-04-10T12:13:57.141Z,21.96
2023-04-10T12:18:58.977Z,22.06
2023-04-10T12:24:00.346Z,22.21
2023-04-10T12:29:01.939Z,22.17
2023-04-10T12:34:05.322Z,22.18
2023-04-10T12:39:22.420Z,22.31
2023-04-10T12:44:23.740Z,22.71
2023-04-10T12:49:25.426Z,22.95
2023-04-10T12:54:34.940Z,23.17
2023-04-10T12:59:37.325Z,23.34
2023-04-10T13:04:38.818Z,23.22
2023-04-10T13:09:40.293Z,23.26
2023-04-10T13:14:42.098Z,23.21
2023-04-10T13:19:43.454Z,23.34
2023-04-10T13:24:45.234Z,23.53
2023-04-10T13:29:46.639Z,23.93
2023-04-10T13:34:47.971Z,23.89
2023-04-10T13:39:49.326Z,24.25
2023-04-10T13:44:50.707Z,24.21
2023-04-10T13:49:52.028Z,24.33
2023-04-10T13:54:53.399Z,24.29
2023-04-10T13:59:54.750Z,23.81
2023-04-10T14:04:56.124Z,23.52
2023-04-10T14:09:57.441Z,23.42
2023-04-10T14:14:59.199Z,23.41
2023-04-10T14:20:00.662Z,23.31
2023-04-10T14:25:12.594Z,23.14
2023-04-10T14:30:15.350Z,23.09
2023-04-10T14:35:16.921Z,23.12
2023-04-10T14:40:18.351Z,23.19
2023-04-10T14:45:19.726Z,23.23
2023-04-10T14:50:21.054Z,23.35
2023-04-10T14:55:22.413Z,23.76
2023-04-10T15:00:26.742Z,23.47
2023-04-10T15:05:28.213Z,23.25
2023-04-10T15:10:30.675Z,22.92
2023-04-10T15:15:32.002Z,22.82
2023-04-10T15:20:33.329Z,22.72
2023-04-10T15:25:34.815Z,22.54
2023-04-10T15:30:36.140Z,22.43
2023-04-10T15:35:37.495Z,22.45
2023-04-10T15:40:38.915Z,22.44
2023-04-10T15:45:40.247Z,22.44
2023-04-10T15:50:42.931Z,22.16
2023-04-10T15:55:44.294Z,22.11
2023-04-10T16:00:45.879Z,22.17
2023-04-10T16:05:47.201Z,22.31
2023-04-10T16:10:48.521Z,22.51
2023-04-10T16:15:50.177Z,22.69
2023-04-10T16:20:51.781Z,22.51
2023-04-10T16:25:53.103Z,22.57
2023-04-10T16:30:54.538Z,22.48
2023-04-10T16:35:57.743Z,22.18
2023-04-10T16:41:01.842Z,21.86
2023-04-10T16:46:03.300Z,21.61
2023-04-10T16:51:06.265Z,21.44
2023-04-10T16:56:08.016Z,21.30
2023-04-10T17:01:28.344Z,21.14
2023-04-10T17:06:29.818Z,20.99
2023-04-10T17:11:31.395Z,20.95
2023-04-10T17:16:33.040Z,20.95
2023-04-10T17:21:34.421Z,20.67
2023-04-10T17:26:35.784Z,20.46
2023-04-10T17:31:37.125Z,20.37
2023-04-10T17:36:38.531Z,20.15
2023-04-10T17:41:39.938Z,19.99
2023-04-10T17:46:41.297Z,19.95
2023-04-10T17:51:42.677Z,19.88
2023-04-10T17:56:44.197Z,19.68
2023-04-10T18:01:45.615Z,19.64
2023-04-10T18:06:47.022Z,19.51
2023-04-10T18:11:50.082Z,19.44
2023-04-10T18:16:51.540Z,19.32
2023-04-10T18:21:52.965Z,19.27
2023-04-10T18:26:54.298Z,19.21
2023-04-10T18:31:55.700Z,19.14
2023-04-10T18:36:57.133Z,19.03
2023-04-10T18:41:58.691Z,18.83
2023-04-10T18:47:04.426Z,18.77
2023-04-10T18:52:07.325Z,18.77
2023-04-10T18:57:08.755Z,18.68
2023-04-10T19:02:10.559Z,18.67
2023-04-10T19:07:12.033Z,18.61
2023-04-10T19:12:13.357Z,18.62
2023-04-10T19:17:14.785Z,18.54
2023-04-10T19:22:17.068Z,18.54
2023-04-10T19:27:18.508Z,18.50
2023-04-10T19:32:19.871Z,18.54
2023-04-10T19:37:21.406Z,18.45
2023-04-10T19:42:22.831Z,18.39
2023-04-10T19:47:24.243Z,18.39
2023-04-10T19:52:25.834Z,18.37
2023-04-10T19:57:27.264Z,18.31
2023-04-10T20:02:28.881Z,18.30
2023-04-10T20:07:30.318Z,18.21
2023-04-10T20:12:35.204Z,18.15
2023-04-10T20:17:38.363Z,17.80
2023-04-10T20:22:39.778Z,16.92
2023-04-10T20:27:41.130Z,16.75
2023-04-10T20:32:42.517Z,16.69
2023-04-10T20:37:43.872Z,16.66
2023-04-10T20:42:45.216Z,16.62
2023-04-10T20:47:46.556Z,16.50
2023-04-10T20:52:47.947Z,16.60
2023-04-10T20:57:49.263Z,16.65
2023-04-10T21:02:50.850Z,16.55
2023-04-10T21:07:53.322Z,16.41
2023-04-10T21:12:54.642Z,16.42
2023-04-10T21:17:56.036Z,16.42
2023-04-10T21:22:57.384Z,16.44
2023-04-10T21:27:58.785Z,16.53
2023-04-10T21:33:00.169Z,16.61
2023-04-10T21:38:02.246Z,16.62
2023-04-10T21:43:04.360Z,16.64
2023-04-10T21:48:05.827Z,16.59
2023-04-10T21:53:07.384Z,16.62
2023-04-10T21:58:08.685Z,16.50
2023-04-10T22:03:10.129Z,16.40
2023-04-10T22:08:11.718Z,16.28
2023-04-10T22:13:27.416Z,16.04
2023-04-10T22:18:31.682Z,15.92
2023-04-10T22:23:33.008Z,15.38
2023-04-10T22:28:34.333Z,15.29
2023-04-10T22:33:37.438Z,14.98
2023-04-10T22:38:38.821Z,14.21
2023-04-10T22:43:40.186Z,13.87
2023-04-10T22:48:41.667Z,13.54
2023-04-10T22:53:43.077Z,13.55
2023-04-10T22:58:44.587Z,13.56
2023-04-10T23:03:45.969Z,13.56
2023-04-10T23:08:47.312Z,13.59
2023-04-10T23:13:49.323Z,13.54
2023-04-10T23:18:50.704Z,13.36
2023-04-10T23:23:52.032Z,13.19
2023-04-10T23:28:53.593Z,13.15
2023-04-10T23:33:55.126Z,13.18
2023-04-10T23:38:56.439Z,13.09
2023-04-10T23:43:57.806Z,12.84
2023-04-10T23:49:00.182Z,12.71
2023-04-10T23:54:01.519Z,12.69
2023-04-10T23:59:02.864Z,12.76
